createdAt,value
2023-01-04T00:00:51.748Z,0
2023-01-04T00:02:08.823Z,0
2023-01-04T00:03:25.824Z,0
2023-01-04T00:04:42.749Z,0
2023-01-04T00:05:59.680Z,0
2023-01-04T00:07:16.744Z,0
2023-01-04T00:08:33.722Z,0
2023-01-04T00:09:50.759Z,0
2023-01-04T00:11:07.730Z,0
2023-01-04T00:12:24.779Z,0
2023-01-04T00:13:41.819Z,0
2023-01-04T00:14:58.735Z,0
2023-01-04T00:16:15.784Z,0
2023-01-04T00:17:32.743Z,0
2023-01-04T00:18:49.805Z,0
2023-01-04T00:20:06.712Z,0.53
2023-01-04T00:21:23.732Z,0.85
2023-01-04T00:22:40.744Z,0.33
2023-01-04T00:23:57.852Z,0
2023-01-04T00:25:14.733Z,0
2023-01-04T00:26:31.811Z,0
2023-01-04T00:27:48.733Z,0
2023-01-04T00:29:05.796Z,0.19
2023-01-04T00:30:22.753Z,0
2023-01-04T00:31:39.799Z,0
2023-01-04T00:32:56.766Z,0
2023-01-04T00:34:13.788Z,0
2023-01-04T00:35:45.072Z,0.34
2023-01-04T00:36:47.746Z,0.51
2023-01-04T00:38:04.773Z,0.93
2023-01-04T00:39:21.781Z,0.88
2023-01-04T00:40:38.791Z,0.49
2023-01-04T00:41:59.073Z,0
2023-01-04T00:43:12.752Z,0
2023-01-04T00:44:30.029Z,0
2023-01-04T00:45:46.827Z,0
2023-01-04T00:47:03.761Z,0
2023-01-04T00:48:20.773Z,0
2023-01-04T00:49:37.972Z,0
2023-01-04T00:50:54.774Z,0
2023-01-04T00:52:11.817Z,0
2023-01-04T00:53:28.757Z,0
2023-01-04T00:54:45.797Z,0
2023-01-04T00:56:02.793Z,0
2023-01-04T00:57:19.785Z,0
2023-01-04T00:58:36.803Z,0.54
2023-01-04T00:59:53.809Z,0.23
2023-01-04T01:01:10.872Z,0.13
2023-01-04T01:02:28.001Z,0
2023-01-04T01:03:44.941Z,0
2023-01-04T01:05:01.915Z,0
2023-01-04T01:06:18.796Z,0
2023-01-04T01:07:35.835Z,0
2023-01-04T01:08:52.790Z,0
2023-01-04T01:10:09.805Z,0.26
2023-01-04T01:11:26.782Z,0
2023-01-04T01:12:43.799Z,0
2023-01-04T01:14:00.819Z,0
2023-01-04T01:15:17.804Z,0
2023-01-04T01:17:51.834Z,0.48
2023-01-04T01:19:09.356Z,0.52
2023-01-04T01:20:25.855Z,0
2023-01-04T01:21:42.789Z,0
2023-01-04T01:22:59.842Z,0
2023-01-04T01:24:16.872Z,0.36
2023-01-04T01:25:33.808Z,0.08
2023-01-04T01:26:50.831Z,0
2023-01-04T01:28:07.847Z,0
2023-01-04T01:29:24.849Z,0.14
2023-01-04T01:30:41.925Z,0.36
2023-01-04T01:31:58.920Z,0.27
2023-01-04T01:33:15.827Z,0.33
2023-01-04T01:34:32.886Z,0.14
2023-01-04T01:35:49.854Z,0
2023-01-04T01:37:06.824Z,0
2023-01-04T01:38:23.832Z,0
2023-01-04T01:39:40.860Z,0
2023-01-04T01:40:57.837Z,0
2023-01-04T01:42:14.864Z,0
2023-01-04T01:43:31.832Z,0
2023-01-04T01:44:48.856Z,0
2023-01-04T01:46:05.914Z,0
2023-01-04T01:47:22.842Z,0
2023-01-04T01:48:39.854Z,0
2023-01-04T01:49:56.892Z,0
2023-01-04T01:51:13.862Z,0
2023-01-04T01:52:30.843Z,0
2023-01-04T01:53:47.837Z,0
2023-01-04T01:55:04.913Z,0
2023-01-04T01:56:21.862Z,0
2023-01-04T01:57:38.864Z,0
2023-01-04T01:58:55.882Z,0.31
2023-01-04T02:00:12.923Z,0.76
2023-01-04T02:01:29.983Z,0.61
2023-01-04T02:02:47.041Z,0.94
2023-01-04T02:04:03.952Z,0.6
2023-01-04T02:05:20.919Z,0.34
2023-01-04T02:06:37.890Z,0.22
2023-01-04T02:07:54.867Z,0
2023-01-04T02:09:11.888Z,0
2023-01-04T02:10:28.894Z,0.21
2023-01-04T02:11:45.929Z,0
2023-01-04T02:13:02.896Z,0.14
2023-01-04T02:14:19.859Z,0.29
2023-01-04T02:15:36.921Z,0.24
2023-01-04T02:16:53.886Z,0
2023-01-04T02:18:10.863Z,0
2023-01-04T02:19:27.883Z,0
2023-01-04T02:20:44.892Z,0.47
2023-01-04T02:22:01.937Z,0
2023-01-04T02:23:18.908Z,0.24
2023-01-04T02:24:35.906Z,0
2023-01-04T02:25:52.888Z,0
2023-01-04T02:27:09.900Z,0
2023-01-04T02:28:26.915Z,0.15
2023-01-04T02:29:43.935Z,0.12
2023-01-04T02:31:00.952Z,0.45
2023-01-04T02:32:19.223Z,0.62
2023-01-04T02:33:36.251Z,1.13
2023-01-04T02:34:58.435Z,1.06
2023-01-04T02:36:09.911Z,0.99
2023-01-04T02:37:27.863Z,1.02
2023-01-04T02:38:44.945Z,0.48
2023-01-04T02:40:01.947Z,0.77
2023-01-04T02:41:19.051Z,0.86
2023-01-04T02:42:37.460Z,0.71
2023-01-04T02:43:56.076Z,0.7
2023-01-04T02:45:13.416Z,0.74
2023-01-04T02:46:31.034Z,0.55
2023-01-04T02:47:48.874Z,0.52
2023-01-04T02:49:05.937Z,0.47
2023-01-04T02:50:22.959Z,0.5
2023-01-04T02:51:39.937Z,0.53
2023-01-04T02:52:56.975Z,0.28
2023-01-04T02:54:13.931Z,0
2023-01-04T02:55:30.987Z,0
2023-01-04T02:56:47.948Z,0
2023-01-04T02:58:04.964Z,0.16
2023-01-04T02:59:21.927Z,0.26
2023-01-04T03:00:38.955Z,0.23
2023-01-04T03:01:56.054Z,0
2023-01-04T03:03:13.146Z,0
2023-01-04T03:04:29.963Z,0
2023-01-04T03:05:46.942Z,0
2023-01-04T03:07:03.941Z,0
2023-01-04T03:08:20.928Z,0
2023-01-04T03:09:37.954Z,0
2023-01-04T03:10:54.945Z,0
2023-01-04T03:12:11.975Z,0
2023-01-04T03:13:28.938Z,0
2023-01-04T03:14:45.956Z,0
2023-01-04T03:16:03.033Z,0
2023-01-04T03:17:19.970Z,0
2023-01-04T03:18:36.954Z,0
2023-01-04T03:19:54.052Z,0
2023-01-04T03:21:10.972Z,0
2023-01-04T03:22:28.001Z,0
2023-01-04T03:23:44.983Z,0
2023-01-04T03:25:02.037Z,0
2023-01-04T03:26:18.981Z,0
2023-01-04T03:27:36.003Z,0
2023-01-04T03:28:52.969Z,0
2023-01-04T03:30:10.036Z,0
2023-01-04T03:31:27.084Z,0
2023-01-04T03:32:43.967Z,0
2023-01-04T03:34:00.935Z,0
2023-01-04T03:35:18.004Z,0
2023-01-04T03:36:35.001Z,0
2023-01-04T03:37:51.979Z,0
2023-01-04T03:39:09.052Z,0
2023-01-04T03:40:26.020Z,0
2023-01-04T03:41:42.980Z,0
2023-01-04T03:42:59.969Z,0.15
2023-01-04T03:44:16.971Z,0
2023-01-04T03:45:34.047Z,0
2023-01-04T03:46:51.217Z,0
2023-01-04T03:48:07.991Z,0
2023-01-04T03:49:24.991Z,0
2023-01-04T03:50:42.049Z,0
2023-01-04T03:51:59.026Z,0
2023-01-04T03:53:16.053Z,0
2023-01-04T03:54:33.037Z,0
2023-01-04T03:55:50.010Z,0
2023-01-04T03:57:07.034Z,0
2023-01-04T03:58:24.025Z,0
2023-01-04T03:59:41.012Z,0
2023-01-04T04:00:58.108Z,0
2023-01-04T04:02:15.149Z,0
2023-01-04T04:03:32.067Z,0.4
2023-01-04T04:04:49.013Z,0.52
2023-01-04T04:06:06.088Z,0.64
2023-01-04T04:07:23.075Z,0.61
2023-01-04T04:08:40.051Z,0.65
2023-01-04T04:09:57.050Z,0.63
2023-01-04T04:11:14.023Z,0.36
2023-01-04T04:12:31.080Z,0.22
2023-01-04T04:13:48.052Z,0
2023-01-04T04:15:05.016Z,0.42
2023-01-04T04:16:22.075Z,0.46
2023-01-04T04:17:39.060Z,0.34
2023-01-04T04:18:56.061Z,0.22
2023-01-04T04:20:13.011Z,0
2023-01-04T04:21:30.005Z,0
2023-01-04T04:22:47.076Z,0
2023-01-04T04:24:04.059Z,0
2023-01-04T04:25:21.067Z,0
2023-01-04T04:26:38.060Z,0
2023-01-04T04:27:55.074Z,0
2023-01-04T04:29:12.031Z,0
2023-01-04T04:30:29.053Z,0
2023-01-04T04:31:46.129Z,0
2023-01-04T04:33:03.050Z,0
2023-01-04T04:34:20.051Z,0
2023-01-04T04:35:37.039Z,0
2023-01-04T04:36:54.070Z,0
2023-01-04T04:38:11.095Z,0
2023-01-04T04:39:28.043Z,0
2023-01-04T04:40:45.067Z,0
2023-01-04T04:42:02.080Z,0
2023-01-04T04:43:19.729Z,0
2023-01-04T04:44:36.084Z,0
2023-01-04T04:45:53.159Z,0
2023-01-04T04:47:10.070Z,0
2023-01-04T04:48:27.104Z,0.36
2023-01-04T04:49:44.040Z,0.15
2023-01-04T04:51:01.080Z,0
2023-01-04T04:52:18.061Z,0
2023-01-04T04:53:35.133Z,0
2023-01-04T04:54:52.059Z,0
2023-01-04T04:56:09.104Z,0
2023-01-04T04:57:26.089Z,0
2023-01-04T04:58:43.134Z,0
2023-01-04T05:00:00.096Z,0
2023-01-04T05:01:17.178Z,0
2023-01-04T05:02:34.255Z,0
2023-01-04T05:03:51.132Z,0
2023-01-04T05:05:08.081Z,0
2023-01-04T05:06:25.090Z,0.29
2023-01-04T05:07:42.084Z,0.4
2023-01-04T05:08:59.176Z,0.54
2023-01-04T05:10:16.085Z,0.55
2023-01-04T05:11:33.111Z,0.42
2023-01-04T05:12:54.397Z,0.25
2023-01-04T05:14:07.471Z,0
2023-01-04T05:15:24.086Z,0.26
2023-01-04T05:16:41.255Z,0.62
2023-01-04T05:17:58.156Z,0.28
2023-01-04T05:19:15.123Z,0.49
2023-01-04T05:20:32.120Z,0.18
2023-01-04T05:21:49.113Z,0
2023-01-04T05:23:06.105Z,0.24
2023-01-04T05:24:23.113Z,0.1
2023-01-04T05:25:40.100Z,0.26
2023-01-04T05:26:57.151Z,0.45
2023-01-04T05:28:14.108Z,0.46
2023-01-04T05:29:31.085Z,0.42
2023-01-04T05:30:48.095Z,0.61
2023-01-04T05:32:05.333Z,0.69
2023-01-04T05:33:22.120Z,0.89
2023-01-04T05:34:39.129Z,1.23
2023-01-04T05:35:56.151Z,0.69
2023-01-04T05:37:13.117Z,0.74
2023-01-04T05:38:30.261Z,1.23
2023-01-04T05:39:47.122Z,0.77
2023-01-04T05:41:04.123Z,0.66
2023-01-04T05:42:21.282Z,0.88
2023-01-04T05:43:38.114Z,0.85
2023-01-04T05:44:55.144Z,1.13
2023-01-04T05:46:12.190Z,0.88
2023-01-04T05:47:29.198Z,0.87
2023-01-04T05:48:46.171Z,0.87
2023-01-04T05:50:03.129Z,0.78
2023-01-04T05:51:20.164Z,0.81
2023-01-04T05:52:37.200Z,0.4
2023-01-04T05:53:54.156Z,0.66
2023-01-04T05:55:11.145Z,0.68
2023-01-04T05:56:28.128Z,1.11
2023-01-04T05:57:45.189Z,0.9
2023-01-04T05:59:02.178Z,0.87
2023-01-04T06:00:19.147Z,0.96
2023-01-04T06:01:36.207Z,0.72
2023-01-04T06:02:53.253Z,0.76
2023-01-04T06:04:10.323Z,1.12
2023-01-04T06:05:27.182Z,1.23
2023-01-04T06:06:44.165Z,0.3
2023-01-04T06:08:01.172Z,0
2023-01-04T06:09:18.154Z,0
2023-01-04T06:10:35.184Z,0.44
2023-01-04T06:11:52.163Z,0.19
2023-01-04T06:13:09.292Z,0.64
2023-01-04T06:14:26.168Z,1.37
2023-01-04T06:15:43.542Z,1.5
2023-01-04T06:17:00.236Z,1.74
2023-01-04T06:18:17.172Z,1.73
2023-01-04T06:19:34.172Z,1.21
2023-01-04T06:20:51.166Z,1.26
2023-01-04T06:22:08.186Z,0.54
2023-01-04T06:23:25.199Z,0.49
2023-01-04T06:24:42.209Z,0.24
2023-01-04T06:25:59.339Z,0.38
2023-01-04T06:27:16.622Z,0.87
2023-01-04T06:28:38.663Z,0.78
2023-01-04T06:29:50.231Z,1.14
2023-01-04T06:31:07.239Z,0.66
2023-01-04T06:32:24.193Z,1.06
2023-01-04T06:33:41.201Z,0.75
2023-01-04T06:34:58.189Z,0.48
2023-01-04T06:36:19.652Z,0.49
2023-01-04T06:37:32.187Z,0.6
2023-01-04T06:38:49.233Z,0.63
2023-01-04T06:40:06.609Z,1.46
2023-01-04T06:41:23.190Z,1.54
2023-01-04T06:42:40.223Z,1.29
2023-01-04T06:43:57.282Z,0.85
2023-01-04T06:45:14.277Z,0.61
2023-01-04T06:46:31.294Z,0.24
2023-01-04T06:47:48.369Z,0.36
2023-01-04T06:49:05.207Z,0.1
2023-01-04T06:50:22.284Z,1.19
2023-01-04T06:51:39.225Z,1.11
2023-01-04T06:52:56.216Z,1.23
2023-01-04T06:54:13.215Z,1.69
2023-01-04T06:55:30.845Z,1.1
2023-01-04T06:56:47.226Z,1.09
2023-01-04T06:58:04.221Z,0.82
2023-01-04T06:59:21.308Z,1
2023-01-04T07:00:38.277Z,1.12
2023-01-04T07:01:55.407Z,1.05
2023-01-04T07:03:13.116Z,1.03
2023-01-04T07:04:29.244Z,0.93
2023-01-04T07:05:46.267Z,0.87
2023-01-04T07:07:03.275Z,0.8
2023-01-04T07:08:20.228Z,0.82
2023-01-04T07:09:37.264Z,1
2023-01-04T07:10:54.262Z,0.76
2023-01-04T07:12:11.266Z,0.56
2023-01-04T07:13:28.239Z,0.57
2023-01-04T07:14:45.295Z,0.56
2023-01-04T07:16:02.324Z,0.71
2023-01-04T07:17:21.377Z,0.93
2023-01-04T07:18:36.260Z,0.94
2023-01-04T07:19:53.274Z,0.95
2023-01-04T07:21:10.226Z,1.19
2023-01-04T07:22:27.293Z,1.3
2023-01-04T07:23:44.259Z,1.11
2023-01-04T07:25:01.247Z,0.84
2023-01-04T07:26:18.264Z,1.09
2023-01-04T07:27:35.291Z,0.95
2023-01-04T07:28:52.307Z,0.85
2023-01-04T07:30:09.309Z,0.94
2023-01-04T07:31:26.362Z,1.15
2023-01-04T07:32:43.273Z,0.6
2023-01-04T07:34:00.299Z,0.73
2023-01-04T07:35:17.298Z,0.78
2023-01-04T07:36:34.359Z,0.6
2023-01-04T07:37:57.732Z,0.67
2023-01-04T07:39:08.256Z,0.74
2023-01-04T07:40:25.286Z,0.9
2023-01-04T07:41:42.295Z,0.93
2023-01-04T07:42:59.314Z,0.84
2023-01-04T07:44:16.291Z,0.79
2023-01-04T07:45:33.392Z,0.93
2023-01-04T07:46:50.326Z,0.79
2023-01-04T07:48:07.301Z,0.83
2023-01-04T07:49:24.295Z,0.69
2023-01-04T07:50:41.325Z,0.93
2023-01-04T07:51:58.292Z,0.95
2023-01-04T07:53:15.298Z,0.81
2023-01-04T07:54:32.330Z,0.94
2023-01-04T07:55:49.360Z,0.61
2023-01-04T07:57:06.321Z,0.56
2023-01-04T07:58:23.345Z,0.76
2023-01-04T07:59:40.344Z,0.58
2023-01-04T08:00:57.315Z,0.81
2023-01-04T08:02:14.380Z,0.89
2023-01-04T08:03:31.311Z,0.94
2023-01-04T08:04:48.425Z,0.36
2023-01-04T08:06:05.309Z,0.42
2023-01-04T08:07:22.324Z,0.5
2023-01-04T08:08:39.329Z,0.48
2023-01-04T08:09:56.303Z,0.51
2023-01-04T08:11:13.312Z,0.63
2023-01-04T08:12:30.361Z,0.61
2023-01-04T08:13:47.339Z,0.6
2023-01-04T08:15:04.321Z,0.43
2023-01-04T08:16:21.434Z,0.47
2023-01-04T08:17:38.328Z,1.13
2023-01-04T08:18:55.392Z,0.81
2023-01-04T08:20:12.331Z,0.75
2023-01-04T08:21:29.334Z,0.6
2023-01-04T08:22:46.414Z,0.69
2023-01-04T08:24:03.335Z,0.74
2023-01-04T08:25:20.333Z,0.71
2023-01-04T08:26:37.335Z,0.63
2023-01-04T08:27:54.354Z,0.83
2023-01-04T08:29:11.348Z,0.68
2023-01-04T08:30:28.350Z,0.21
2023-01-04T08:31:45.477Z,0.45
2023-01-04T08:33:02.392Z,0.74
2023-01-04T08:34:19.359Z,0.81
2023-01-04T08:35:36.386Z,1.15
2023-01-04T08:36:53.404Z,0.67
2023-01-04T08:38:47.083Z,0.53
2023-01-04T08:39:27.357Z,0.84
2023-01-04T08:40:58.330Z,1.02
2023-01-04T08:42:11.138Z,1.01
2023-01-04T08:43:18.398Z,1.14
2023-01-04T08:44:35.386Z,1.68
2023-01-04T08:45:52.372Z,0.89
2023-01-04T08:47:09.427Z,1.64
2023-01-04T08:48:26.373Z,1.32
2023-01-04T08:49:43.365Z,1.05
2023-01-04T08:51:00.377Z,1.36
2023-01-04T08:52:17.436Z,1.05
2023-01-04T08:53:34.423Z,1.27
2023-01-04T08:54:51.437Z,1.14
2023-01-04T08:56:08.401Z,1.14
2023-01-04T08:57:25.388Z,1.23
2023-01-04T08:58:42.416Z,1.12
2023-01-04T08:59:59.419Z,1.5
2023-01-04T09:01:16.514Z,1.96
2023-01-04T09:02:33.515Z,2
2023-01-04T09:03:50.388Z,1.53
2023-01-04T09:05:07.485Z,1.79
2023-01-04T09:06:24.396Z,1.67
2023-01-04T09:07:41.441Z,2.3
2023-01-04T09:08:58.481Z,1.19
2023-01-04T09:10:15.397Z,1.32
2023-01-04T09:11:32.388Z,1.93
2023-01-04T09:12:49.382Z,1.23
2023-01-04T09:14:08.151Z,1.39
2023-01-04T09:15:23.401Z,1.76
2023-01-04T09:16:40.552Z,1.69
2023-01-04T09:18:29.756Z,1.63
2023-01-04T09:19:19.803Z,1.74
2023-01-04T09:20:31.388Z,2.09
2023-01-04T09:21:48.497Z,1.64
2023-01-04T09:23:05.434Z,1.87
2023-01-04T09:24:22.419Z,1.44
2023-01-04T09:25:39.409Z,2.06
2023-01-04T09:26:56.448Z,2.01
2023-01-04T09:28:13.431Z,1.45
2023-01-04T09:29:30.414Z,1.68
2023-01-04T09:30:47.423Z,1.91
2023-01-04T09:32:04.497Z,1.34
2023-01-04T09:33:27.854Z,2.01
2023-01-04T09:34:38.449Z,1.4
2023-01-04T09:35:55.448Z,1.21
2023-01-04T09:37:12.429Z,1.88
2023-01-04T09:38:29.506Z,1.3
2023-01-04T09:39:46.451Z,1.79
2023-01-04T09:41:03.432Z,1.93
2023-01-04T09:42:20.439Z,1.65
2023-01-04T09:43:37.563Z,1.71
2023-01-04T09:45:22.323Z,1.66
2023-01-04T09:46:11.481Z,1.71
2023-01-04T09:47:28.437Z,2.05
2023-01-04T09:48:45.496Z,2.23
2023-01-04T09:50:02.456Z,2.19
2023-01-04T09:51:19.463Z,2.36
2023-01-04T09:52:36.443Z,1.58
2023-01-04T09:53:53.507Z,2.56
2023-01-04T09:55:36.747Z,1.98
2023-01-04T09:56:27.518Z,1.36
2023-01-04T09:57:44.482Z,1.24
2023-01-04T09:59:01.459Z,2.1
2023-01-04T10:00:18.462Z,2.09
2023-01-04T10:01:35.698Z,2.19
2023-01-04T10:02:52.590Z,1.31
2023-01-04T10:04:09.484Z,1.23
2023-01-04T10:05:26.473Z,1.32
2023-01-04T10:06:43.481Z,2.16
2023-01-04T10:08:00.557Z,1.56
2023-01-04T10:09:17.472Z,1.68
2023-01-04T10:10:34.472Z,1.4
2023-01-04T10:11:51.498Z,1.47
2023-01-04T10:13:08.501Z,1.51
2023-01-04T10:14:25.490Z,1.46
2023-01-04T10:15:42.478Z,1.34
2023-01-04T10:17:18.043Z,1.29
2023-01-04T10:22:07.693Z,1.35
2023-01-04T10:23:24.466Z,1.71
2023-01-04T10:24:41.484Z,2.37
2023-01-04T10:25:58.514Z,2.62
2023-01-04T10:27:15.519Z,2.19
2023-01-04T10:28:32.558Z,1.51
2023-01-04T10:29:49.517Z,1.5
2023-01-04T10:31:38.325Z,1.32
2023-01-04T10:32:23.517Z,1.61
2023-01-04T10:33:40.520Z,1.42
2023-01-04T10:34:57.524Z,1.3
2023-01-04T10:36:14.533Z,1.3
2023-01-04T10:37:31.510Z,1.61
2023-01-04T10:38:48.513Z,1.46
2023-01-04T10:40:05.555Z,1.93
2023-01-04T10:41:22.543Z,2.12
2023-01-04T10:42:39.627Z,1.78
2023-01-04T10:44:09.627Z,1.38
2023-01-04T10:45:13.641Z,1.76
2023-01-04T10:46:30.628Z,1.95
2023-01-04T10:47:47.531Z,1.71
2023-01-04T10:49:04.521Z,1.41
2023-01-04T10:50:21.550Z,1.28
2023-01-04T10:51:38.539Z,1.58
2023-01-04T10:52:55.529Z,1.48
2023-01-04T10:54:12.522Z,1.98
2023-01-04T10:55:29.554Z,1.36
2023-01-04T10:56:46.563Z,1.47
2023-01-04T10:58:03.572Z,1.54
2023-01-04T10:59:20.525Z,1.04
2023-01-04T11:00:37.589Z,2.2
2023-01-04T11:01:54.782Z,1.75
2023-01-04T11:03:11.624Z,2.61
2023-01-04T11:04:28.578Z,1.8
2023-01-04T11:05:45.579Z,1.29
2023-01-04T11:07:02.591Z,1.04
2023-01-04T11:08:19.602Z,1.23
2023-01-04T11:09:36.593Z,0.95
2023-01-04T11:10:53.554Z,2.51
2023-01-04T11:12:10.660Z,1.45
2023-01-04T11:13:27.572Z,1.63
2023-01-04T11:14:44.569Z,2.05
2023-01-04T11:16:01.636Z,1.97
2023-01-04T11:17:18.610Z,1.44
2023-01-04T11:18:35.585Z,1.49
2023-01-04T11:19:52.553Z,1.24
2023-01-04T11:21:09.610Z,1.7
2023-01-04T11:22:26.695Z,1.57
2023-01-04T11:23:43.551Z,1.42
2023-01-04T11:26:17.562Z,1.94
2023-01-04T11:27:34.926Z,1.53
2023-01-04T11:28:51.576Z,1.77
2023-01-04T11:30:08.591Z,2.39
2023-01-04T11:31:25.652Z,2.81
2023-01-04T11:32:42.603Z,3.12
2023-01-04T11:33:59.673Z,2.21
2023-01-04T11:35:16.614Z,1.4
2023-01-04T11:36:33.613Z,2.18
2023-01-04T11:37:50.723Z,1.81
2023-01-04T11:39:07.740Z,1.2
2023-01-04T11:40:24.779Z,1.74
2023-01-04T11:41:41.717Z,1.52
2023-01-04T11:42:58.768Z,2.03
2023-01-04T11:44:15.756Z,2.17
2023-01-04T11:45:32.760Z,1.8
2023-01-04T11:46:49.711Z,1.75
2023-01-04T11:48:10.844Z,1.28
2023-01-04T11:49:23.779Z,1.02
2023-01-04T11:50:40.719Z,1.6
2023-01-04T11:51:57.756Z,0.83
2023-01-04T11:53:14.798Z,1.84
2023-01-04T11:54:31.767Z,1.33
2023-01-04T11:55:48.756Z,1.27
2023-01-04T11:57:11.299Z,1.12
2023-01-04T11:58:23.127Z,2.01
2023-01-04T11:59:39.755Z,1.95
2023-01-04T12:00:56.790Z,1.51
2023-01-04T12:02:23.485Z,1.25
2023-01-04T12:03:30.826Z,1.54
2023-01-04T12:04:47.788Z,1.42
2023-01-04T12:06:04.795Z,1.47
2023-01-04T12:07:21.778Z,1.94
2023-01-04T12:08:38.770Z,1.54
2023-01-04T12:09:55.769Z,1.98
2023-01-04T12:11:12.760Z,1.9
2023-01-04T12:12:29.770Z,1.95
2023-01-04T12:13:46.787Z,1.71
2023-01-04T12:15:03.785Z,1.72
2023-01-04T12:16:20.764Z,2.52
2023-01-04T12:17:39.799Z,1.87
2023-01-04T12:18:54.780Z,2.54
2023-01-04T12:20:16.487Z,2.58
2023-01-04T12:21:28.756Z,1.78
2023-01-04T12:22:45.799Z,1.58
2023-01-04T12:24:02.802Z,2.01
2023-01-04T12:25:19.827Z,2.74
2023-01-04T12:26:36.764Z,2.6
2023-01-04T12:27:53.777Z,1.8
2023-01-04T12:29:10.813Z,3.34
2023-01-04T12:30:27.806Z,2.39
2023-01-04T12:31:44.783Z,2.53
2023-01-04T12:33:01.792Z,2.05
2023-01-04T12:34:18.835Z,2.6
2023-01-04T12:35:35.836Z,1.32
2023-01-04T12:36:52.806Z,1.38
2023-01-04T12:38:09.807Z,2.43
2023-01-04T12:39:26.781Z,2.44
2023-01-04T12:40:43.814Z,2.9
2023-01-04T12:42:01.119Z,2.36
2023-01-04T12:43:17.784Z,2.41
2023-01-04T12:44:34.812Z,1.7
2023-01-04T12:45:51.902Z,1.56
2023-01-04T12:47:08.868Z,1.87
2023-01-04T12:48:25.830Z,1.43
2023-01-04T12:49:42.810Z,1.81
2023-01-04T12:51:13.316Z,1.95
2023-01-04T12:52:42.883Z,1.39
2023-01-04T12:53:33.899Z,2.86
2023-01-04T12:54:50.844Z,1.63
2023-01-04T12:56:07.841Z,1.98
2023-01-04T12:57:24.838Z,1.5
2023-01-04T12:59:15.145Z,1.72
2023-01-04T12:59:58.812Z,1.81
2023-01-04T13:01:15.987Z,3.28
2023-01-04T13:02:33.071Z,3.16
2023-01-04T13:03:49.875Z,1.94
2023-01-04T13:05:53.944Z,2.93
2023-01-04T13:06:23.873Z,2.45
2023-01-04T13:07:40.837Z,1.99
2023-01-04T13:08:57.870Z,3.38
2023-01-04T13:10:14.847Z,3.1
2023-01-04T13:11:31.853Z,2.83
2023-01-04T13:12:48.842Z,1.95
2023-01-04T13:14:05.832Z,3.21
2023-01-04T13:15:22.844Z,3.27
2023-01-04T13:16:39.956Z,1.62
2023-01-04T13:17:56.880Z,1.44
2023-01-04T13:19:13.853Z,2.61
2023-01-04T13:20:30.896Z,2.02
2023-01-04T13:21:47.861Z,2.35
2023-01-04T13:23:04.907Z,2.37
2023-01-04T13:24:21.884Z,2.28
2023-01-04T13:25:38.866Z,2.92
2023-01-04T13:26:55.863Z,2.43
2023-01-04T13:28:17.064Z,2.71
2023-01-04T13:29:29.921Z,2.66
2023-01-04T13:30:46.934Z,2.07
2023-01-04T13:32:03.919Z,3.31
2023-01-04T13:33:28.905Z,3.14
2023-01-04T13:34:37.880Z,2.63
2023-01-04T13:35:54.937Z,3.72
2023-01-04T13:37:11.872Z,2.17
2023-01-04T13:38:28.904Z,3.21
2023-01-04T13:39:45.907Z,2.91
2023-01-04T13:41:02.915Z,2.05
2023-01-04T13:42:19.889Z,1.94
2023-01-04T13:43:36.919Z,1.98
2023-01-04T13:45:18.951Z,2.09
2023-01-04T13:46:11.097Z,1.62
2023-01-04T13:47:27.900Z,2.63
2023-01-04T13:48:44.943Z,2.11
2023-01-04T13:50:02.051Z,1.8
2023-01-04T13:51:18.944Z,3.08
2023-01-04T13:52:50.886Z,1.88
2023-01-04T13:53:52.954Z,1.38
2023-01-04T13:55:09.952Z,1.89
2023-01-04T13:56:26.915Z,2.12
2023-01-04T13:57:43.905Z,3.64
2023-01-04T13:59:00.967Z,2.95
2023-01-04T14:00:17.914Z,1.51
2023-01-04T14:01:35.089Z,1.93
2023-01-04T14:02:52.101Z,2.11
2023-01-04T14:04:08.948Z,2.02
2023-01-04T14:05:25.907Z,1.82
2023-01-04T14:06:42.956Z,1.46
2023-01-04T14:08:00.052Z,1.87
2023-01-04T14:09:16.925Z,2.53
2023-01-04T14:10:33.954Z,1.52
2023-01-04T14:11:50.938Z,1.94
2023-01-04T14:13:07.914Z,2.95
2023-01-04T14:14:25.080Z,1.8
2023-01-04T14:15:42.003Z,1.82
2023-01-04T14:16:58.953Z,2.61
2023-01-04T14:18:15.969Z,2.15
2023-01-04T14:19:32.993Z,1.29
2023-01-04T14:20:49.908Z,2.67
2023-01-04T14:22:06.943Z,2.44
2023-01-04T14:23:23.958Z,2.01
2023-01-04T14:25:08.345Z,1.76
2023-01-04T14:25:57.974Z,1.66
2023-01-04T14:27:14.935Z,1.53
2023-01-04T14:28:31.979Z,1.35
2023-01-04T14:29:48.937Z,2.34
2023-01-04T14:31:05.957Z,2.12
2023-01-04T14:32:22.938Z,1.78
2023-01-04T14:33:40.006Z,1.98
2023-01-04T14:34:56.977Z,2.7
2023-01-04T14:36:14.154Z,1.61
2023-01-04T14:37:30.939Z,1.53
2023-01-04T14:38:51.416Z,1.59
2023-01-04T14:40:09.129Z,1.98
2023-01-04T14:41:25.976Z,2.94
2023-01-04T14:42:43.207Z,1.62
2023-01-04T14:44:01.059Z,1.59
2023-01-04T14:45:17.960Z,2.46
2023-01-04T14:46:35.048Z,2.82
2023-01-04T14:47:51.952Z,1.48
2023-01-04T14:49:09.028Z,2.14
2023-01-04T14:50:26.032Z,2.54
2023-01-04T14:51:43.008Z,1.47
2023-01-04T14:52:59.989Z,2.19
2023-01-04T14:54:22.364Z,1.97
2023-01-04T14:55:34.107Z,1.93
2023-01-04T14:56:51.020Z,2.34
2023-01-04T14:58:07.979Z,2.07
2023-01-04T14:59:25.119Z,1.38
2023-01-04T15:00:42.022Z,2.49
2023-01-04T15:01:59.185Z,2.11
2023-01-04T15:03:16.231Z,2.09
2023-01-04T15:04:32.998Z,2.42
2023-01-04T15:05:49.976Z,2.59
2023-01-04T15:07:07.089Z,2.14
2023-01-04T15:08:24.044Z,2.01
2023-01-04T15:09:41.019Z,1.43
2023-01-04T15:11:00.095Z,2.78
2023-01-04T15:12:15.164Z,2.71
2023-01-04T15:13:36.880Z,1.81
2023-01-04T15:14:49.086Z,1.77
2023-01-04T15:16:06.487Z,2.81
2023-01-04T15:17:23.066Z,2.08
2023-01-04T15:18:40.025Z,2.15
2023-01-04T15:19:57.019Z,2.12
2023-01-04T15:21:14.125Z,2.17
2023-01-04T15:22:31.060Z,2.41
2023-01-04T15:23:48.008Z,2.55
2023-01-04T15:25:05.015Z,1.92
2023-01-04T15:26:22.058Z,1.82
2023-01-04T15:27:42.382Z,1.84
2023-01-04T15:28:56.033Z,2.06
2023-01-04T15:30:13.073Z,1.6
2023-01-04T15:31:35.089Z,2.29
2023-01-04T15:32:47.101Z,1.26
2023-01-04T15:34:04.028Z,2.31
2023-01-04T15:35:21.130Z,1.92
2023-01-04T15:36:38.064Z,2.17
2023-01-04T15:37:55.033Z,2.68
2023-01-04T15:39:12.073Z,1.88
2023-01-04T15:40:29.065Z,2.39
2023-01-04T15:41:46.129Z,1.49
2023-01-04T15:43:03.144Z,2.1
2023-01-04T15:44:20.038Z,1.71
2023-01-04T15:45:37.113Z,1.13
2023-01-04T15:46:54.232Z,1.28
2023-01-04T15:48:11.084Z,1.38
2023-01-04T15:49:28.065Z,0.91
2023-01-04T15:50:45.047Z,1.78
2023-01-04T15:52:02.168Z,1.3
2023-01-04T15:53:19.064Z,1.37
2023-01-04T15:54:36.045Z,1.14
2023-01-04T15:55:53.074Z,1.38
2023-01-04T15:57:10.092Z,1.22
2023-01-04T15:58:27.068Z,1.68
2023-01-04T15:59:44.059Z,2.13
2023-01-04T16:01:06.249Z,1.82
2023-01-04T16:02:18.298Z,1.34
2023-01-04T16:03:35.145Z,1.42
2023-01-04T16:04:52.086Z,1.82
2023-01-04T16:06:09.092Z,1.98
2023-01-04T16:07:28.600Z,2.03
2023-01-04T16:08:43.093Z,1.58
2023-01-04T16:10:00.200Z,1.58
2023-01-04T16:11:17.114Z,2.91
2023-01-04T16:12:34.780Z,3.46
2023-01-04T16:13:52.298Z,4.11
2023-01-04T16:15:09.085Z,1.75
2023-01-04T16:16:26.119Z,2.14
2023-01-04T16:17:43.221Z,2.02
2023-01-04T16:19:00.118Z,2.11
2023-01-04T16:20:17.127Z,1.7
2023-01-04T16:21:34.120Z,2.73
2023-01-04T16:22:51.119Z,2.34
2023-01-04T16:24:22.305Z,2.29
2023-01-04T16:25:25.108Z,2.68
2023-01-04T16:26:42.171Z,2.27
2023-01-04T16:27:59.143Z,1.75
2023-01-04T16:29:16.196Z,2.08
2023-01-04T16:30:33.171Z,1.88
2023-01-04T16:31:50.179Z,2.23
2023-01-04T16:33:07.122Z,2.46
2023-01-04T16:34:24.096Z,1.82
2023-01-04T16:35:41.195Z,1.56
2023-01-04T16:36:58.286Z,2.27
2023-01-04T16:38:15.254Z,1.87
2023-01-04T16:40:05.123Z,1.91
2023-01-04T16:40:49.239Z,2.31
2023-01-04T16:42:10.682Z,1.66
2023-01-04T16:43:23.218Z,2.12
2023-01-04T16:44:40.291Z,2.39
2023-01-04T16:45:57.235Z,1.77
2023-01-04T16:47:14.242Z,2.45
2023-01-04T16:48:31.309Z,1.88
2023-01-04T16:49:48.222Z,1.48
2023-01-04T16:51:05.267Z,2.69
2023-01-04T16:52:22.265Z,3
2023-01-04T16:53:39.316Z,2.44
2023-01-04T16:54:56.250Z,1.61
2023-01-04T16:56:13.255Z,2.42
2023-01-04T16:57:30.233Z,1.85
2023-01-04T16:58:47.263Z,2.01
2023-01-04T17:00:04.331Z,2.16
2023-01-04T17:01:21.373Z,2.09
2023-01-04T17:02:37.849Z,2.45
2023-01-04T17:03:54.603Z,2.04
2023-01-04T17:05:11.151Z,1.72
2023-01-04T17:06:28.249Z,1.2
2023-01-04T17:07:45.155Z,1.74
2023-01-04T17:09:02.362Z,2.95
2023-01-04T17:10:20.632Z,2.31
2023-01-04T17:12:52.259Z,1.53
2023-01-04T17:14:09.276Z,2.03
2023-01-04T17:15:43.308Z,3.1
2023-01-04T17:16:43.309Z,2.2
2023-01-04T17:18:00.266Z,1.39
2023-01-04T17:19:17.941Z,1.73
2023-01-04T17:20:35.234Z,1.94
2023-01-04T17:21:52.178Z,1.93
2023-01-04T17:23:09.277Z,2.14
2023-01-04T17:24:26.295Z,2.76
2023-01-04T17:25:43.273Z,1.68
2023-01-04T17:27:00.347Z,1.69
2023-01-04T17:28:21.328Z,1.65
2023-01-04T17:29:34.307Z,1.77
2023-01-04T17:30:51.369Z,1.16
2023-01-04T17:32:08.389Z,2.27
2023-01-04T17:33:25.286Z,2.56
2023-01-04T17:34:42.288Z,2.11
2023-01-04T17:35:59.303Z,2.07
2023-01-04T17:37:16.318Z,2.59